Time;durP1;ratioP1;P1;durP2;ratioP2;P2;SDS_P1;SDS_P2;PMS_P1;PMS_P2;Temp;Humidity;BMP_temperature;BMP_pressure;BME280_temperature;BME280_humidity;BME280_pressure;Samples;Min_cycle;Max_cycle;Signal;HPM_P1;HPM_P2
2022/01/08 00:01:40;;;;;;;14.45;8.15;;;;;;;;;;5025066;28;20029;-86
2022/01/08 00:04:06;;;;;;;12.90;8.02;;;;;;;;;;5025759;28;20025;-86
2022/01/08 00:06:31;;;;;;;13.35;7.78;;;;;;;;;;5028256;28;20037;-84
2022/01/08 00:08:57;;;;;;;12.68;8.07;;;;;;;;;;5026626;28;20022;-86
2022/01/08 00:11:25;;;;;;;12.15;7.75;;;;;;;;;;5030708;28;20021;-87
2022/01/08 00:13:51;;;;;;;12.80;7.68;;;;;;;;;;5028534;28;20055;-87
2022/01/08 00:16:16;;;;;;;11.93;7.85;;;;;;;;;;5029188;28;20041;-85
2022/01/08 00:18:42;;;;;;;11.65;7.97;;;;;;;;;;5024635;28;20028;-86
2022/01/08 00:21:07;;;;;;;15.85;8.20;;;;;;;;;;5023762;28;20025;-86
2022/01/08 00:23:32;;;;;;;12.23;8.30;;;;;;;;;;5029533;28;20041;-89
2022/01/08 00:26:01;;;;;;;14.25;8.38;;;;;;;;;;5025652;28;20055;-87
2022/01/08 00:28:27;;;;;;;12.20;8.20;;;;;;;;;;5025491;28;20032;-87
2022/01/08 00:30:53;;;;;;;14.05;8.57;;;;;;;;;;5024809;28;20033;-84
2022/01/08 00:33:19;;;;;;;12.70;8.02;;;;;;;;;;5025716;28;20463;-88
2022/01/08 00:35:44;;;;;;;12.38;7.95;;;;;;;;;;5027783;28;20084;-86
2022/01/08 00:38:09;;;;;;;10.85;7.78;;;;;;;;;;5023279;28;20025;-86
2022/01/08 00:40:35;;;;;;;10.95;7.35;;;;;;;;;;5027879;28;20036;-86
2022/01/08 00:43:00;;;;;;;14.20;8.40;;;;;;;;;;5046806;28;20067;-87
2022/01/08 00:45:26;;;;;;;12.07;7.40;;;;;;;;;;5027270;28;20028;-83
2022/01/08 00:47:51;;;;;;;12.10;7.85;;;;;;;;;;5040132;28;20025;-86
2022/01/08 00:50:17;;;;;;;14.13;7.40;;;;;;;;;;5041499;28;20033;-83
2022/01/08 00:52:43;;;;;;;13.30;7.57;;;;;;;;;;5026994;28;20052;-85
2022/01/08 00:55:09;;;;;;;13.18;7.90;;;;;;;;;;5024081;28;20052;-87
2022/01/08 00:57:35;;;;;;;11.27;7.47;;;;;;;;;;5027349;28;20060;-86
2022/01/08 01:00:00;;;;;;;14.07;8.43;;;;;;;;;;5029390;28;20079;-84
2022/01/08 01:02:26;;;;;;;13.45;7.70;;;;;;;;;;5025858;28;20112;-88
2022/01/08 01:04:51;;;;;;;11.98;7.20;;;;;;;;;;5027615;28;20021;-85
2022/01/08 01:07:17;;;;;;;12.27;7.75;;;;;;;;;;5019156;28;20326;-87
2022/01/08 01:09:42;;;;;;;11.55;7.60;;;;;;;;;;5024843;28;20052;-88
2022/01/08 01:12:08;;;;;;;13.18;7.38;;;;;;;;;;5024177;28;20136;-85
2022/01/08 01:14:34;;;;;;;10.38;6.80;;;;;;;;;;5022594;28;20068;-86
2022/01/08 01:16:59;;;;;;;13.05;6.90;;;;;;;;;;5029578;28;20471;-84
2022/01/08 01:19:25;;;;;;;11.57;6.68;;;;;;;;;;5025533;28;20044;-83
2022/01/08 01:21:53;;;;;;;10.05;6.68;;;;;;;;;;5025448;28;20107;-86
2022/01/08 01:24:21;;;;;;;10.50;6.55;;;;;;;;;;5027104;28;20096;-88
2022/01/08 01:27:33;;;;;;;15.07;7.40;;;;;;;;;;5023858;28;20028;-85
2022/01/08 01:29:48;;;;;;;9.68;6.15;;;;;;;;;;5040531;28;20036;-85
2022/01/08 01:43:24;;;;;;;9.57;6.40;;;;;;;;;;5039406;28;20087;-86
2022/01/08 01:48:34;;;;;;;11.23;6.60;;;;;;;;;;5045155;28;20749;-87
2022/01/08 01:50:59;;;;;;;11.18;6.78;;;;;;;;;;5021683;28;20116;-86
2022/01/08 01:53:24;;;;;;;8.95;5.72;;;;;;;;;;5020491;28;20120;-84
2022/01/08 01:55:50;;;;;;;11.30;6.35;;;;;;;;;;5024424;28;20066;-87
2022/01/08 01:58:17;;;;;;;11.77;6.30;;;;;;;;;;5045921;28;20084;-86
2022/01/08 02:00:44;;;;;;;10.15;5.55;;;;;;;;;;5024760;28;20044;-84
2022/01/08 02:03:10;;;;;;;13.68;6.13;;;;;;;;;;5023558;28;20037;-87
2022/01/08 02:05:35;;;;;;;10.80;5.80;;;;;;;;;;5023785;28;20042;-86
2022/01/08 02:08:01;;;;;;;12.35;5.43;;;;;;;;;;5021771;28;20098;-87
2022/01/08 02:10:26;;;;;;;10.35;6.22;;;;;;;;;;5023405;28;20467;-84
2022/01/08 02:12:52;;;;;;;9.80;5.53;;;;;;;;;;5024751;28;20017;-88
2022/01/08 02:15:17;;;;;;;8.50;5.45;;;;;;;;;;5039383;28;20069;-88
2022/01/08 02:17:43;;;;;;;11.38;5.88;;;;;;;;;;5023175;28;20029;-85
2022/01/08 02:20:09;;;;;;;9.35;5.88;;;;;;;;;;5043305;28;20534;-86
2022/01/08 02:22:35;;;;;;;8.52;5.07;;;;;;;;;;5026289;28;20024;-86
2022/01/08 02:25:00;;;;;;;8.77;5.70;;;;;;;;;;5021686;28;20140;-84
2022/01/08 02:27:26;;;;;;;13.02;6.38;;;;;;;;;;5024199;28;20031;-88
2022/01/08 02:29:52;;;;;;;13.73;5.70;;;;;;;;;;5023656;28;20039;-86
2022/01/08 02:32:23;;;;;;;9.85;5.72;;;;;;;;;;5037559;28;20040;-86
2022/01/08 02:34:49;;;;;;;11.07;6.15;;;;;;;;;;5024181;28;20025;-86
2022/01/08 02:37:17;;;;;;;11.27;5.82;;;;;;;;;;5024651;28;20033;-88
2022/01/08 02:39:43;;;;;;;8.98;5.57;;;;;;;;;;5025191;28;20025;-86
2022/01/08 02:42:14;;;;;;;12.80;5.78;;;;;;;;;;5040126;28;20026;-87
2022/01/08 02:44:43;;;;;;;10.55;5.70;;;;;;;;;;5019600;28;20075;-88
2022/01/08 02:47:09;;;;;;;11.30;6.03;;;;;;;;;;5041021;28;20103;-86
2022/01/08 02:49:36;;;;;;;9.20;5.30;;;;;;;;;;5023945;28;20136;-87
2022/01/08 02:52:03;;;;;;;10.18;5.30;;;;;;;;;;5025750;28;20075;-87
2022/01/08 02:54:28;;;;;;;8.52;5.63;;;;;;;;;;5022524;28;20024;-83
2022/01/08 02:56:54;;;;;;;13.18;5.50;;;;;;;;;;5019347;28;20105;-84
2022/01/08 02:59:19;;;;;;;12.18;5.70;;;;;;;;;;5025572;28;20033;-88
2022/01/08 03:01:45;;;;;;;10.18;5.38;;;;;;;;;;5025466;28;20029;-86
2022/01/08 03:04:11;;;;;;;10.02;5.50;;;;;;;;;;5019121;28;20025;-86
2022/01/08 03:06:37;;;;;;;11.00;5.85;;;;;;;;;;5042102;28;20025;-88
2022/01/08 03:09:03;;;;;;;12.05;5.60;;;;;;;;;;5025099;28;20036;-86
2022/01/08 03:11:28;;;;;;;9.85;5.50;;;;;;;;;;5025638;28;20021;-88
2022/01/08 03:13:54;;;;;;;9.93;5.13;;;;;;;;;;5028616;28;20097;-87
2022/01/08 03:16:19;;;;;;;8.27;4.82;;;;;;;;;;5020179;28;20052;-86
2022/01/08 03:18:47;;;;;;;11.10;5.38;;;;;;;;;;5025657;28;20489;-86
2022/01/08 03:21:18;;;;;;;10.05;5.35;;;;;;;;;;5045296;28;20032;-85
2022/01/08 03:23:51;;;;;;;11.63;5.43;;;;;;;;;;5025092;28;20025;-88
2022/01/08 03:26:17;;;;;;;9.18;5.32;;;;;;;;;;5026144;28;20120;-86
2022/01/08 03:28:44;;;;;;;9.25;4.97;;;;;;;;;;5028154;28;20037;-84
2022/01/08 03:31:10;;;;;;;10.98;5.20;;;;;;;;;;5045903;28;20032;-87
2022/01/08 03:33:36;;;;;;;10.15;5.65;;;;;;;;;;5027210;28;20126;-88
2022/01/08 03:36:01;;;;;;;8.63;5.03;;;;;;;;;;5027155;28;20057;-85
2022/01/08 03:38:27;;;;;;;15.43;5.60;;;;;;;;;;5027429;28;20021;-88
2022/01/08 03:40:52;;;;;;;11.45;6.00;;;;;;;;;;5023755;28;20116;-83
2022/01/08 03:43:17;;;;;;;10.82;6.07;;;;;;;;;;5026830;28;20067;-87
2022/01/08 03:45:43;;;;;;;10.63;6.25;;;;;;;;;;5028086;28;20033;-87
2022/01/08 03:51:00;;;;;;;9.75;5.70;;;;;;;;;;5036425;28;20061;-86
2022/01/08 03:53:26;;;;;;;11.77;6.00;;;;;;;;;;5025323;28;20033;-89
2022/01/08 03:55:52;;;;;;;12.00;5.85;;;;;;;;;;5024726;28;20032;-88
2022/01/08 03:58:18;;;;;;;11.32;5.07;;;;;;;;;;5028052;28;20048;-88
2022/01/08 04:00:45;;;;;;;7.32;5.03;;;;;;;;;;5024567;28;20561;-87
2022/01/08 04:03:10;;;;;;;9.63;5.57;;;;;;;;;;5047218;28;20135;-83
2022/01/08 04:05:36;;;;;;;10.13;5.53;;;;;;;;;;5025879;28;20048;-88
2022/01/08 04:08:01;;;;;;;12.80;5.30;;;;;;;;;;5031156;28;20116;-87
2022/01/08 04:10:26;;;;;;;9.13;5.10;;;;;;;;;;5025389;28;20112;-86
2022/01/08 04:12:56;;;;;;;9.82;4.82;;;;;;;;;;5026739;28;20021;-86
2022/01/08 04:17:48;;;;;;;12.15;5.10;;;;;;;;;;5042891;28;20095;-83
2022/01/08 04:20:13;;;;;;;9.82;5.22;;;;;;;;;;5028096;28;20526;-86
2022/01/08 04:22:38;;;;;;;8.98;5.22;;;;;;;;;;5027257;28;20033;-87
2022/01/08 04:25:04;;;;;;;10.45;5.63;;;;;;;;;;5042014;28;20482;-83
2022/01/08 04:27:29;;;;;;;11.20;5.85;;;;;;;;;;5023893;28;20553;-86
2022/01/08 04:29:55;;;;;;;12.30;5.00;;;;;;;;;;5044667;28;20063;-87
2022/01/08 04:32:20;;;;;;;10.93;5.97;;;;;;;;;;5047215;28;20052;-88
2022/01/08 04:34:45;;;;;;;11.68;5.10;;;;;;;;;;5021439;28;20395;-84
2022/01/08 04:37:11;;;;;;;8.27;5.40;;;;;;;;;;5028490;28;20490;-84
2022/01/08 04:39:36;;;;;;;11.00;5.07;;;;;;;;;;5025768;28;20537;-88
2022/01/08 04:42:02;;;;;;;9.93;5.50;;;;;;;;;;5025204;28;20025;-88
2022/01/08 04:44:27;;;;;;;11.15;5.50;;;;;;;;;;5024973;28;20025;-87
2022/01/08 04:46:53;;;;;;;9.60;5.45;;;;;;;;;;5025725;28;20094;-85
2022/01/08 04:49:18;;;;;;;9.70;5.60;;;;;;;;;;5027143;28;20032;-87
2022/01/08 04:51:44;;;;;;;9.82;5.43;;;;;;;;;;5023199;28;20030;-83
2022/01/08 04:54:09;;;;;;;11.30;5.70;;;;;;;;;;5041151;28;20025;-83
2022/01/08 04:56:35;;;;;;;8.80;5.18;;;;;;;;;;5026531;28;20483;-83
2022/01/08 04:59:00;;;;;;;11.18;5.60;;;;;;;;;;5022632;28;20032;-85
2022/01/08 05:01:25;;;;;;;9.70;5.35;;;;;;;;;;5023053;28;20033;-85
2022/01/08 05:03:51;;;;;;;12.30;5.70;;;;;;;;;;5025428;28;20078;-88
2022/01/08 05:06:16;;;;;;;10.13;5.25;;;;;;;;;;5028345;28;20083;-88
2022/01/08 05:08:42;;;;;;;10.32;5.35;;;;;;;;;;5030704;28;20049;-86
2022/01/08 05:11:07;;;;;;;10.88;5.60;;;;;;;;;;5019910;28;20029;-87
2022/01/08 05:13:32;;;;;;;9.43;5.47;;;;;;;;;;5026730;28;20033;-88
2022/01/08 05:15:59;;;;;;;6.80;4.45;;;;;;;;;;5022003;28;20045;-88
2022/01/08 05:18:25;;;;;;;11.75;5.38;;;;;;;;;;5026474;28;20037;-86
2022/01/08 05:20:57;;;;;;;9.30;5.30;;;;;;;;;;5031046;28;20025;-85
2022/01/08 05:23:22;;;;;;;11.50;5.55;;;;;;;;;;5045522;28;20029;-88
2022/01/08 05:25:48;;;;;;;11.60;5.68;;;;;;;;;;5027593;28;20083;-88
2022/01/08 05:28:13;;;;;;;9.13;5.18;;;;;;;;;;5046438;28;20033;-88
2022/01/08 05:30:38;;;;;;;11.20;5.63;;;;;;;;;;5027188;28;20033;-88
2022/01/08 05:33:04;;;;;;;10.63;5.43;;;;;;;;;;5029282;28;20017;-83
2022/01/08 05:35:29;;;;;;;9.10;5.90;;;;;;;;;;5023662;28;20021;-85
2022/01/08 05:37:55;;;;;;;11.43;5.85;;;;;;;;;;5044559;28;20062;-88
2022/01/08 05:40:21;;;;;;;11.63;5.30;;;;;;;;;;5047243;28;20111;-86
2022/01/08 05:42:47;;;;;;;9.88;5.70;;;;;;;;;;5022639;28;20574;-86
2022/01/08 05:45:12;;;;;;;12.90;5.40;;;;;;;;;;5043723;28;20364;-83
2022/01/08 05:47:38;;;;;;;12.75;5.63;;;;;;;;;;5021355;28;20072;-88
2022/01/08 05:50:05;;;;;;;9.60;5.38;;;;;;;;;;5026399;28;20028;-88
2022/01/08 05:52:30;;;;;;;8.55;5.30;;;;;;;;;;5021511;28;20021;-86
2022/01/08 05:54:56;;;;;;;13.32;6.93;;;;;;;;;;5024722;28;20186;-85
2022/01/08 05:57:21;;;;;;;9.40;5.80;;;;;;;;;;5028638;28;20029;-88
2022/01/08 05:59:47;;;;;;;13.43;6.55;;;;;;;;;;5040412;28;20037;-87
2022/01/08 06:02:12;;;;;;;10.43;6.10;;;;;;;;;;5022828;28;20025;-89
2022/01/08 06:04:37;;;;;;;10.25;6.25;;;;;;;;;;5022548;28;20040;-88
2022/01/08 06:07:04;;;;;;;11.68;5.72;;;;;;;;;;5025970;28;20028;-88
2022/01/08 06:09:29;;;;;;;10.70;6.18;;;;;;;;;;5019992;28;20021;-88
2022/01/08 06:11:55;;;;;;;13.73;6.97;;;;;;;;;;5024122;28;20036;-88
2022/01/08 06:14:21;;;;;;;12.15;6.63;;;;;;;;;;5038129;28;20025;-84
2022/01/08 06:16:46;;;;;;;11.55;6.70;;;;;;;;;;5027018;28;20067;-86
2022/01/08 06:19:13;;;;;;;12.52;6.47;;;;;;;;;;5022411;28;20022;-85
2022/01/08 06:21:39;;;;;;;14.27;6.55;;;;;;;;;;5042882;28;20085;-88
2022/01/08 06:24:05;;;;;;;11.25;6.88;;;;;;;;;;5021894;28;20475;-84
2022/01/08 06:26:30;;;;;;;13.93;6.70;;;;;;;;;;5025909;28;20095;-87
2022/01/08 06:28:56;;;;;;;13.60;6.88;;;;;;;;;;5041569;28;20029;-89
2022/01/08 06:31:23;;;;;;;12.35;5.97;;;;;;;;;;5044497;28;20025;-88
2022/01/08 06:33:52;;;;;;;10.68;6.72;;;;;;;;;;5019360;28;20095;-88
2022/01/08 06:36:18;;;;;;;13.10;6.68;;;;;;;;;;5021152;28;20392;-86
2022/01/08 06:38:44;;;;;;;12.10;5.93;;;;;;;;;;5021581;28;20057;-85
2022/01/08 06:41:10;;;;;;;12.27;6.72;;;;;;;;;;5023096;28;20517;-87
2022/01/08 06:43:35;;;;;;;11.00;6.43;;;;;;;;;;5043156;28;20028;-87
2022/01/08 06:46:01;;;;;;;13.45;6.38;;;;;;;;;;5022401;28;20036;-83
2022/01/08 06:48:27;;;;;;;14.18;7.20;;;;;;;;;;5042323;28;20497;-85
2022/01/08 06:50:52;;;;;;;13.88;7.22;;;;;;;;;;5023746;28;20029;-89
2022/01/08 06:53:18;;;;;;;12.00;7.05;;;;;;;;;;5027884;28;20492;-83
2022/01/08 06:55:43;;;;;;;14.77;7.35;;;;;;;;;;5025630;28;20120;-87
2022/01/08 06:58:09;;;;;;;13.30;7.65;;;;;;;;;;5025708;28;20018;-88
2022/01/08 07:00:35;;;;;;;12.82;7.88;;;;;;;;;;5049867;28;20040;-85
2022/01/08 07:03:00;;;;;;;12.52;7.22;;;;;;;;;;5031011;28;20040;-88
2022/01/08 07:05:25;;;;;;;13.02;7.60;;;;;;;;;;5022786;28;20069;-88
2022/01/08 07:07:51;;;;;;;17.38;7.60;;;;;;;;;;5028618;28;20025;-83
2022/01/08 07:10:16;;;;;;;11.80;7.53;;;;;;;;;;5033980;28;20052;-85
2022/01/08 07:12:41;;;;;;;11.63;7.00;;;;;;;;;;5029612;28;20025;-88
2022/01/08 07:15:07;;;;;;;13.02;7.38;;;;;;;;;;5024492;28;20060;-88
2022/01/08 07:17:33;;;;;;;13.45;7.40;;;;;;;;;;5022092;28;20022;-88
2022/01/08 07:19:58;;;;;;;11.80;7.82;;;;;;;;;;5024043;28;20025;-85
2022/01/08 07:22:23;;;;;;;12.63;7.43;;;;;;;;;;5019575;28;20026;-88
2022/01/08 07:24:49;;;;;;;14.88;8.20;;;;;;;;;;5023122;28;20075;-83
2022/01/08 07:27:14;;;;;;;11.00;7.10;;;;;;;;;;5022145;28;20072;-83
2022/01/08 07:29:39;;;;;;;13.45;7.53;;;;;;;;;;5020686;28;20476;-87
2022/01/08 07:32:05;;;;;;;12.95;7.97;;;;;;;;;;5023287;28;20101;-83
2022/01/08 07:34:31;;;;;;;12.88;7.63;;;;;;;;;;5020848;28;20029;-84
2022/01/08 07:36:56;;;;;;;15.02;7.35;;;;;;;;;;5025540;28;20021;-85
2022/01/08 07:39:21;;;;;;;11.90;7.20;;;;;;;;;;5024258;28;20061;-84
2022/01/08 07:41:47;;;;;;;12.32;8.05;;;;;;;;;;5023218;28;20063;-87
2022/01/08 07:44:12;;;;;;;13.60;8.07;;;;;;;;;;5023549;28;20128;-85
2022/01/08 07:46:38;;;;;;;12.73;7.53;;;;;;;;;;5024555;28;20766;-87
2022/01/08 07:49:03;;;;;;;11.75;7.88;;;;;;;;;;5019832;28;20029;-85
2022/01/08 07:51:28;;;;;;;12.65;7.30;;;;;;;;;;5022880;28;20487;-85
2022/01/08 07:53:54;;;;;;;15.48;8.35;;;;;;;;;;5023983;28;20372;-85
2022/01/08 07:56:19;;;;;;;12.10;7.13;;;;;;;;;;5022518;28;20079;-88
2022/01/08 07:58:45;;;;;;;12.50;7.63;;;;;;;;;;5024924;28;20037;-86
2022/01/08 08:01:10;;;;;;;13.55;8.27;;;;;;;;;;5025175;28;20083;-85
2022/01/08 08:03:35;;;;;;;14.63;8.05;;;;;;;;;;5026590;28;20044;-86
2022/01/08 08:06:01;;;;;;;14.25;8.07;;;;;;;;;;5025485;28;20030;-88
2022/01/08 08:08:26;;;;;;;11.02;7.45;;;;;;;;;;5026663;28;20048;-87
2022/01/08 08:10:52;;;;;;;13.15;7.50;;;;;;;;;;5024801;28;20040;-83
2022/01/08 08:13:18;;;;;;;12.40;6.82;;;;;;;;;;5024787;28;20611;-86
2022/01/08 08:15:44;;;;;;;17.75;8.50;;;;;;;;;;5022213;28;20144;-84
2022/01/08 08:18:11;;;;;;;13.55;7.22;;;;;;;;;;5032070;28;20179;-86
2022/01/08 08:20:37;;;;;;;13.27;8.00;;;;;;;;;;5027058;28;20079;-84
2022/01/08 08:23:02;;;;;;;12.18;8.05;;;;;;;;;;5025951;28;20064;-87
2022/01/08 08:25:28;;;;;;;12.13;7.38;;;;;;;;;;5025206;28;20479;-86
2022/01/08 08:27:53;;;;;;;12.27;8.02;;;;;;;;;;5024352;28;20036;-87
2022/01/08 08:30:20;;;;;;;14.65;7.47;;;;;;;;;;5021341;28;20369;-87
2022/01/08 08:32:46;;;;;;;15.65;7.57;;;;;;;;;;5025926;28;20471;-86
2022/01/08 08:35:11;;;;;;;12.07;7.05;;;;;;;;;;5017582;28;20251;-88
2022/01/08 08:37:37;;;;;;;12.23;7.72;;;;;;;;;;5019784;28;20032;-88
2022/01/08 08:40:07;;;;;;;12.65;7.72;;;;;;;;;;5022165;28;20026;-88
2022/01/08 08:42:33;;;;;;;12.68;7.45;;;;;;;;;;5024072;28;20512;-88
2022/01/08 08:44:58;;;;;;;12.95;7.63;;;;;;;;;;5022741;28;20088;-83
2022/01/08 08:47:23;;;;;;;12.65;7.60;;;;;;;;;;5026239;28;20440;-86
2022/01/08 08:49:49;;;;;;;11.27;6.75;;;;;;;;;;5023273;28;20502;-88
2022/01/08 08:52:14;;;;;;;15.13;6.93;;;;;;;;;;5021683;28;20056;-88
2022/01/08 08:54:41;;;;;;;12.68;7.53;;;;;;;;;;5025049;28;20018;-85
2022/01/08 08:57:07;;;;;;;11.32;6.88;;;;;;;;;;5018823;28;20384;-85
2022/01/08 08:59:32;;;;;;;12.35;7.53;;;;;;;;;;5026234;28;20034;-88
2022/01/08 09:01:58;;;;;;;14.55;7.18;;;;;;;;;;5019179;28;20038;-88
2022/01/08 09:04:24;;;;;;;16.92;7.15;;;;;;;;;;5024076;28;20025;-83
2022/01/08 09:06:50;;;;;;;11.35;6.20;;;;;;;;;;5019291;28;20064;-85
2022/01/08 09:09:15;;;;;;;13.63;7.13;;;;;;;;;;5025951;28;20029;-83
2022/01/08 09:11:41;;;;;;;11.57;6.53;;;;;;;;;;5020598;28;20051;-87
2022/01/08 09:14:07;;;;;;;15.23;7.70;;;;;;;;;;5023528;28;20022;-88
2022/01/08 09:16:33;;;;;;;12.70;6.50;;;;;;;;;;5042664;28;20041;-84
2022/01/08 09:18:59;;;;;;;14.50;7.15;;;;;;;;;;5027532;28;20029;-83
2022/01/08 09:21:24;;;;;;;14.82;7.30;;;;;;;;;;5020893;28;20022;-86
2022/01/08 09:23:50;;;;;;;12.57;6.65;;;;;;;;;;5021507;28;20060;-83
2022/01/08 09:26:16;;;;;;;12.02;6.47;;;;;;;;;;5036208;28;20029;-87
2022/01/08 09:28:41;;;;;;;12.27;7.10;;;;;;;;;;5019455;28;20032;-87
2022/01/08 09:31:07;;;;;;;12.13;6.63;;;;;;;;;;5020109;28;20033;-84
2022/01/08 09:33:36;;;;;;;11.82;7.45;;;;;;;;;;5034399;28;20040;-88
2022/01/08 09:36:01;;;;;;;11.82;6.50;;;;;;;;;;5023236;28;20024;-88
2022/01/08 09:38:27;;;;;;;18.52;8.70;;;;;;;;;;5017720;28;20099;-88
2022/01/08 09:40:52;;;;;;;15.30;7.60;;;;;;;;;;5019503;28;20525;-86
2022/01/08 09:43:19;;;;;;;14.68;7.78;;;;;;;;;;5010992;28;20022;-87
2022/01/08 09:45:45;;;;;;;14.73;8.55;;;;;;;;;;5016890;28;20025;-86
2022/01/08 09:48:11;;;;;;;15.88;8.38;;;;;;;;;;5012282;28;20122;-85
2022/01/08 09:50:39;;;;;;;19.35;8.93;;;;;;;;;;5014192;28;20709;-87
2022/01/08 09:53:04;;;;;;;15.90;8.70;;;;;;;;;;5017982;28;20025;-83
2022/01/08 09:55:30;;;;;;;19.90;9.32;;;;;;;;;;5019045;28;20037;-86
2022/01/08 09:58:01;;;;;;;15.75;9.32;;;;;;;;;;5019651;28;20036;-83
2022/01/08 10:00:26;;;;;;;14.48;8.82;;;;;;;;;;5013982;28;20025;-85
2022/01/08 10:02:52;;;;;;;18.40;8.90;;;;;;;;;;5015388;28;20063;-86
2022/01/08 10:05:18;;;;;;;17.35;9.32;;;;;;;;;;5010955;28;20090;-85
2022/01/08 10:08:00;;;;;;;22.55;9.23;;;;;;;;;;5018758;28;20045;-84
2022/01/08 10:10:27;;;;;;;18.15;8.90;;;;;;;;;;4999529;28;20037;-82
2022/01/08 10:13:00;;;;;;;18.50;9.70;;;;;;;;;;5017729;28;20036;-84
2022/01/08 10:18:33;;;;;;;17.25;9.02;;;;;;;;;;5020598;28;19935;-84
2022/01/08 10:21:02;;;;;;;16.75;9.25;;;;;;;;;;5014142;28;20733;-86
2022/01/08 10:23:33;;;;;;;18.00;8.75;;;;;;;;;;5017653;28;20056;-84
2022/01/08 10:26:02;;;;;;;18.42;9.85;;;;;;;;;;5018043;28;20082;-87
2022/01/08 10:28:38;;;;;;;21.13;9.63;;;;;;;;;;5035594;28;20033;-86
2022/01/08 10:31:21;;;;;;;16.35;8.85;;;;;;;;;;5013847;28;20033;-85
2022/01/08 10:34:02;;;;;;;18.73;9.15;;;;;;;;;;5017175;28;20756;-87
2022/01/08 10:36:33;;;;;;;15.95;8.35;;;;;;;;;;5016895;28;20033;-84
2022/01/08 10:39:00;;;;;;;14.52;7.90;;;;;;;;;;5012636;28;20033;-86
2022/01/08 10:41:27;;;;;;;17.77;9.00;;;;;;;;;;5013737;28;20021;-87
2022/01/08 10:44:18;;;;;;;18.00;8.68;;;;;;;;;;5020201;28;20960;-83
2022/01/08 10:47:16;;;;;;;15.77;7.60;;;;;;;;;;5028444;28;20122;-86
2022/01/08 10:49:50;;;;;;;18.90;8.32;;;;;;;;;;5025102;28;20475;-87
2022/01/08 10:52:23;;;;;;;16.50;8.23;;;;;;;;;;5022562;28;20029;-85
2022/01/08 10:55:02;;;;;;;14.75;8.27;;;;;;;;;;5037999;28;20025;-87
2022/01/08 10:57:56;;;;;;;17.20;8.68;;;;;;;;;;5026274;28;20427;-86
2022/01/08 11:00:31;;;;;;;18.45;8.77;;;;;;;;;;5036844;28;20036;-84
2022/01/08 11:02:57;;;;;;;19.80;9.27;;;;;;;;;;5017332;28;20028;-86
2022/01/08 11:05:25;;;;;;;18.65;9.27;;;;;;;;;;5022271;28;20116;-85
2022/01/08 11:08:25;;;;;;;17.80;10.05;;;;;;;;;;5023069;28;20036;-84
2022/01/08 11:10:58;;;;;;;19.05;9.32;;;;;;;;;;5021974;28;20021;-85
2022/01/08 11:13:26;;;;;;;19.27;9.63;;;;;;;;;;5023089;28;20029;-83
2022/01/08 11:15:56;;;;;;;17.15;9.40;;;;;;;;;;5020374;28;20504;-86
2022/01/08 11:18:27;;;;;;;24.00;10.23;;;;;;;;;;5018912;28;20034;-87
2022/01/08 11:20:59;;;;;;;18.75;10.32;;;;;;;;;;5020028;28;20458;-87
2022/01/08 11:23:34;;;;;;;17.73;9.70;;;;;;;;;;5019898;28;20084;-84
2022/01/08 11:26:03;;;;;;;19.13;9.98;;;;;;;;;;5019008;28;20038;-85
2022/01/08 11:28:37;;;;;;;17.75;9.45;;;;;;;;;;5019409;28;20475;-85
2022/01/08 11:31:05;;;;;;;20.23;9.45;;;;;;;;;;5021101;28;20026;-86
2022/01/08 11:33:35;;;;;;;17.38;9.77;;;;;;;;;;5019152;28;20056;-86
2022/01/08 11:36:01;;;;;;;18.60;9.85;;;;;;;;;;5020550;28;20029;-87
2022/01/08 11:38:30;;;;;;;17.70;10.25;;;;;;;;;;5021071;28;20032;-86
2022/01/08 11:41:03;;;;;;;17.60;9.32;;;;;;;;;;5022959;28;20065;-86
2022/01/08 11:43:35;;;;;;;16.17;8.93;;;;;;;;;;5026426;28;20022;-84
2022/01/08 11:46:07;;;;;;;16.27;8.70;;;;;;;;;;5023321;28;20049;-86
2022/01/08 11:48:35;;;;;;;16.15;8.48;;;;;;;;;;5022058;28;20026;-84
2022/01/08 11:51:06;;;;;;;17.10;9.38;;;;;;;;;;5024900;28;20044;-85
2022/01/08 11:54:02;;;;;;;15.93;8.63;;;;;;;;;;5021645;28;20026;-84
2022/01/08 11:56:38;;;;;;;20.05;9.40;;;;;;;;;;5023719;28;20033;-85
2022/01/08 11:59:35;;;;;;;18.63;9.07;;;;;;;;;;5022373;28;20036;-85
2022/01/08 12:02:08;;;;;;;16.48;8.32;;;;;;;;;;5028594;28;20392;-85
2022/01/08 12:04:34;;;;;;;16.67;8.02;;;;;;;;;;5022222;28;20509;-84
2022/01/08 12:07:24;;;;;;;15.82;7.50;;;;;;;;;;5021498;28;20117;-87
2022/01/08 12:10:15;;;;;;;17.02;7.97;;;;;;;;;;5020261;28;20103;-84
2022/01/08 12:12:46;;;;;;;15.25;7.60;;;;;;;;;;5021845;28;20033;-85
2022/01/08 12:15:35;;;;;;;13.68;6.97;;;;;;;;;;5024787;28;20057;-84
2022/01/08 12:18:14;;;;;;;13.82;7.38;;;;;;;;;;4991664;28;20044;-86
2022/01/08 12:21:07;;;;;;;13.35;6.75;;;;;;;;;;5024212;28;20042;-85
2022/01/08 12:23:44;;;;;;;13.65;6.75;;;;;;;;;;5024869;28;20036;-84
2022/01/08 12:26:42;;;;;;;14.80;6.85;;;;;;;;;;5024462;28;20029;-85
2022/01/08 12:29:07;;;;;;;14.00;6.47;;;;;;;;;;5023502;28;20020;-87
2022/01/08 12:31:49;;;;;;;14.60;7.22;;;;;;;;;;5028302;28;20403;-84
2022/01/08 12:34:49;;;;;;;12.65;5.65;;;;;;;;;;5024929;28;20036;-84
2022/01/08 12:37:40;;;;;;;10.40;5.68;;;;;;;;;;5026513;28;20040;-87
2022/01/08 12:40:16;;;;;;;11.75;5.78;;;;;;;;;;5028325;28;20033;-85
2022/01/08 12:42:44;;;;;;;10.40;5.47;;;;;;;;;;5037020;28;20029;-88
2022/01/08 12:45:43;;;;;;;9.85;5.15;;;;;;;;;;5042879;28;20028;-86
2022/01/08 12:48:13;;;;;;;11.55;5.47;;;;;;;;;;5025899;28;20026;-88
2022/01/08 12:50:44;;;;;;;10.63;5.15;;;;;;;;;;5027876;28;20036;-86
2022/01/08 12:53:52;;;;;;;10.82;5.30;;;;;;;;;;5024604;28;20033;-87
2022/01/08 12:56:15;;;;;;;10.90;4.88;;;;;;;;;;5042790;28;20071;-85
2022/01/08 12:58:46;;;;;;;9.35;4.50;;;;;;;;;;5028221;28;20116;-86
2022/01/08 13:01:45;;;;;;;7.25;4.18;;;;;;;;;;5024347;28;20025;-86
2022/01/08 13:04:16;;;;;;;8.32;4.07;;;;;;;;;;5037426;28;20045;-89
2022/01/08 13:06:45;;;;;;;9.85;3.97;;;;;;;;;;5027033;28;20108;-85
2022/01/08 13:09:15;;;;;;;9.15;3.88;;;;;;;;;;5028489;28;20055;-88
2022/01/08 13:11:46;;;;;;;9.45;3.70;;;;;;;;;;5023101;28;20029;-85
2022/01/08 13:14:21;;;;;;;8.40;3.10;;;;;;;;;;5031769;28;20502;-85
2022/01/08 13:16:52;;;;;;;8.73;3.10;;;;;;;;;;5020467;28;20054;-88
2022/01/08 13:19:20;;;;;;;6.25;3.08;;;;;;;;;;5022708;28;20025;-86
2022/01/08 13:24:50;;;;;;;;;;;;;;;;;;5010856;28;20044;-86
2022/01/08 13:27:23;;;;;;;10.43;2.80;;;;;;;;;;5015337;28;19960;-84
2022/01/08 13:29:51;;;;;;;6.40;2.30;;;;;;;;;;5024217;28;20033;-84
2022/01/08 13:32:21;;;;;;;6.05;2.88;;;;;;;;;;5022004;28;20472;-85
2022/01/08 13:35:19;;;;;;;5.40;2.33;;;;;;;;;;5023625;28;20507;-86
2022/01/08 13:37:50;;;;;;;5.30;2.47;;;;;;;;;;5025732;28;20030;-88
2022/01/08 13:40:50;;;;;;;6.30;2.33;;;;;;;;;;5022487;28;20510;-86
2022/01/08 13:43:22;;;;;;;6.80;2.20;;;;;;;;;;5023422;28;20026;-86
2022/01/08 13:45:53;;;;;;;4.40;2.33;;;;;;;;;;5021959;28;20527;-87
2022/01/08 13:48:22;;;;;;;6.65;2.67;;;;;;;;;;5023607;28;20022;-83
2022/01/08 13:50:58;;;;;;;6.85;2.50;;;;;;;;;;5021505;28;20060;-86
2022/01/08 13:53:24;;;;;;;5.38;2.25;;;;;;;;;;5021247;28;20088;-87
2022/01/08 13:55:53;;;;;;;5.55;2.30;;;;;;;;;;5019782;28;20056;-84
2022/01/08 14:01:55;;;;;;;5.70;2.10;;;;;;;;;;5023547;28;20537;-88
2022/01/08 14:04:24;;;;;;;5.13;2.03;;;;;;;;;;5016410;28;20589;-88
2022/01/08 14:06:58;;;;;;;4.47;1.77;;;;;;;;;;5019132;28;20044;-84
2022/01/08 14:09:32;;;;;;;7.43;2.10;;;;;;;;;;5021401;28;20044;-87
2022/01/08 14:12:50;;;;;;;5.07;2.10;;;;;;;;;;4995668;28;20072;-85
2022/01/08 14:15:26;;;;;;;5.43;2.38;;;;;;;;;;4916872;29;20039;-86
2022/01/08 14:22:14;;;;;;;;;;;;;;;;;;;;;
2022/01/08 14:25:14;;;;;;;;;;;;;;;;;;;;;
2022/01/08 14:31:30;;;;;;;5.03;2.35;;;;;;;;;;4952666;28;20049;-84
2022/01/08 14:34:27;;;;;;;4.45;2.05;;;;;;;;;;4980210;28;20093;-87
2022/01/08 14:37:00;;;;;;;4.00;1.80;;;;;;;;;;4965184;28;20036;-84
2022/01/08 14:39:32;;;;;;;4.80;2.45;;;;;;;;;;4962598;28;20034;-86
2022/01/08 14:42:04;;;;;;;4.90;2.05;;;;;;;;;;4962704;28;20376;-86
2022/01/08 14:44:32;;;;;;;6.20;1.95;;;;;;;;;;4998963;28;20105;-84
2022/01/08 14:47:00;;;;;;;8.13;2.38;;;;;;;;;;4993337;28;20030;-84
2022/01/08 14:49:32;;;;;;;4.50;2.00;;;;;;;;;;4991131;28;20026;-86
2022/01/08 14:52:00;;;;;;;4.38;2.10;;;;;;;;;;5001822;28;20025;-86
2022/01/08 14:54:33;;;;;;;4.93;2.30;;;;;;;;;;4998951;28;20106;-89
2022/01/08 14:57:03;;;;;;;4.93;2.35;;;;;;;;;;4997420;28;20014;-88
2022/01/08 14:59:34;;;;;;;6.97;2.33;;;;;;;;;;4996955;28;20034;-84
2022/01/08 15:02:04;;;;;;;5.00;2.50;;;;;;;;;;4994805;28;20033;-84
2022/01/08 15:04:32;;;;;;;4.55;2.30;;;;;;;;;;4995588;28;20515;-85
2022/01/08 15:07:04;;;;;;;5.03;2.40;;;;;;;;;;4995396;28;20026;-84
2022/01/08 15:09:35;;;;;;;5.70;2.40;;;;;;;;;;4997272;28;20032;-87
2022/01/08 15:12:04;;;;;;;5.22;2.60;;;;;;;;;;4994957;28;20030;-84
2022/01/08 15:14:35;;;;;;;5.50;2.38;;;;;;;;;;4993009;28;20018;-87
2022/01/08 15:17:07;;;;;;;4.90;2.50;;;;;;;;;;5015437;28;20258;-84
2022/01/08 15:19:35;;;;;;;6.22;2.58;;;;;;;;;;5019464;28;20033;-86
2022/01/08 15:22:05;;;;;;;3.88;2.25;;;;;;;;;;5022635;28;20524;-85
2022/01/08 15:25:08;;;;;;;6.00;2.85;;;;;;;;;;5020868;28;20036;-85